createdAt,value
2018-07-01T00:00:52.374Z,0.80
2018-07-01T00:03:56.849Z,1.00
2018-07-01T00:07:01.285Z,1.37
2018-07-01T00:10:07.433Z,1.10
2018-07-01T00:13:11.861Z,0.90
2018-07-01T00:16:16.331Z,0.90
2018-07-01T00:19:20.789Z,0.90
2018-07-01T00:22:25.261Z,1.23
2018-07-01T00:25:29.713Z,0.97
2018-07-01T00:28:34.429Z,1.10
2018-07-01T00:31:38.872Z,1.40
2018-07-01T00:34:43.026Z,1.60
2018-07-01T00:37:47.473Z,1.10
2018-07-01T00:40:52.073Z,1.20
2018-07-01T00:43:56.499Z,1.20
2018-07-01T00:47:00.985Z,1.20
2018-07-01T00:50:06.951Z,1.27
2018-07-01T00:53:11.694Z,1.27
2018-07-01T00:56:16.306Z,1.37
2018-07-01T00:59:21.219Z,1.33
2018-07-01T01:02:25.985Z,1.20
2018-07-01T01:05:30.693Z,1.40
2018-07-01T01:08:35.288Z,1.33
2018-07-01T01:11:40.287Z,1.20
2018-07-01T01:14:45.799Z,1.20
2018-07-01T01:17:50.855Z,1.20
2018-07-01T01:20:55.444Z,1.20
2018-07-01T01:24:00.177Z,1.47
2018-07-01T01:27:04.910Z,1.23
2018-07-01T01:30:09.502Z,1.10
2018-07-01T01:33:14.066Z,1.40
2018-07-01T01:36:18.859Z,1.53
2018-07-01T01:39:29.642Z,1.30
2018-07-01T01:43:44.393Z,1.20
2018-07-01T01:46:53.327Z,1.40
2018-07-01T01:50:02.241Z,1.60
2018-07-01T01:53:13.224Z,1.87
2018-07-01T01:56:24.982Z,1.80
2018-07-01T01:59:40.625Z,1.50
2018-07-01T02:02:53.040Z,1.70
2018-07-01T02:06:01.553Z,1.40
2018-07-01T02:09:13.027Z,1.20
2018-07-01T02:12:18.104Z,1.30
2018-07-01T02:15:26.242Z,1.47
2018-07-01T02:18:31.081Z,1.60
2018-07-01T02:21:36.133Z,1.57
2018-07-01T02:24:43.696Z,1.40
2018-07-01T02:27:48.677Z,1.50
2018-07-01T02:30:53.439Z,1.40
2018-07-01T02:33:58.269Z,1.20
2018-07-01T02:37:03.055Z,1.20
2018-07-01T02:40:08.555Z,1.40
2018-07-01T02:43:13.482Z,1.47
2018-07-01T02:46:18.114Z,1.80
2018-07-01T02:49:22.777Z,1.93
2018-07-01T02:52:27.490Z,1.60
2018-07-01T02:55:32.179Z,1.50
2018-07-01T02:58:36.799Z,1.80
2018-07-01T03:01:41.418Z,1.70
2018-07-01T03:04:46.194Z,1.73
2018-07-01T03:07:50.927Z,1.50
2018-07-01T03:10:55.755Z,1.73
2018-07-01T03:14:00.681Z,1.60
2018-07-01T03:17:05.609Z,1.70
2018-07-01T03:20:10.694Z,1.87
2018-07-01T03:23:16.384Z,2.00
2018-07-01T03:26:21.067Z,2.00
2018-07-01T03:29:26.120Z,1.77
2018-07-01T03:32:30.850Z,1.57
2018-07-01T03:35:35.630Z,1.67
2018-07-01T03:38:40.271Z,1.43
2018-07-01T03:41:45.028Z,1.30
2018-07-01T03:44:50.050Z,1.80
2018-07-01T03:47:54.713Z,1.57
2018-07-01T03:50:59.447Z,1.63
2018-07-01T03:54:04.274Z,1.23
2018-07-01T03:57:09.014Z,1.40
2018-07-01T04:00:13.579Z,1.40
2018-07-01T04:03:18.187Z,1.40
2018-07-01T04:06:22.941Z,1.60
2018-07-01T04:09:31.732Z,1.40
2018-07-01T04:12:36.498Z,1.53
2018-07-01T04:15:41.114Z,1.60
2018-07-01T04:18:46.302Z,1.60
2018-07-01T04:21:51.020Z,1.80
2018-07-01T04:24:55.721Z,1.97
2018-07-01T04:28:00.214Z,1.83
2018-07-01T04:31:04.926Z,1.80
2018-07-01T04:34:09.490Z,1.83
2018-07-01T04:37:14.208Z,1.73
2018-07-01T04:40:18.901Z,2.00
2018-07-01T04:43:23.541Z,2.10
2018-07-01T04:46:28.168Z,2.30
2018-07-01T04:49:32.749Z,2.20
2018-07-01T04:52:37.554Z,2.30
2018-07-01T04:55:42.235Z,2.70
2018-07-01T04:58:47.072Z,2.10
2018-07-01T05:01:51.887Z,2.00
2018-07-01T05:04:56.474Z,2.10
2018-07-01T05:08:01.503Z,2.20
2018-07-01T05:11:06.265Z,1.90
2018-07-01T05:14:10.863Z,1.90
2018-07-01T05:17:15.870Z,1.80
2018-07-01T05:20:20.438Z,1.70
2018-07-01T05:23:24.781Z,1.30
2018-07-01T05:26:29.675Z,1.00
2018-07-01T05:29:34.349Z,1.00
2018-07-01T05:32:39.155Z,0.97
2018-07-01T05:35:43.777Z,0.80
2018-07-01T05:38:48.759Z,0.87
2018-07-01T05:41:53.545Z,0.90
2018-07-01T05:44:58.392Z,0.90
2018-07-01T05:48:02.955Z,0.80
2018-07-01T05:51:07.755Z,0.50
2018-07-01T05:54:12.716Z,0.60
2018-07-01T05:57:17.475Z,0.90
2018-07-01T06:00:22.389Z,0.70
2018-07-01T06:03:28.303Z,0.40
2018-07-01T06:06:46.015Z,0.40
2018-07-01T06:09:50.928Z,0.30
2018-07-01T06:12:55.920Z,0.70
2018-07-01T06:16:06.327Z,0.30
2018-07-01T06:19:17.630Z,0.50
2018-07-01T06:22:23.071Z,0.50
2018-07-01T06:25:44.336Z,0.40
2018-07-01T06:28:55.809Z,0.40
2018-07-01T06:32:16.333Z,0.50
2018-07-01T06:37:09.811Z,0.63
2018-07-01T07:07:44.832Z,0.27
2018-07-01T07:10:49.413Z,0.20
2018-07-01T07:13:53.805Z,0.50
2018-07-01T07:16:58.201Z,0.50
2018-07-01T07:20:02.741Z,0.20
2018-07-01T07:23:07.328Z,0.30
2018-07-01T07:26:11.697Z,0.40
2018-07-01T07:29:16.072Z,0.20
2018-07-01T07:32:20.430Z,0.40
2018-07-01T07:35:24.976Z,0.30
2018-07-01T07:38:29.345Z,0.50
2018-07-01T07:41:33.544Z,0.20
2018-07-01T07:44:37.894Z,0.27
2018-07-01T07:47:42.253Z,0.20
2018-07-01T07:50:46.628Z,0.53
2018-07-01T07:53:51.042Z,0.30
2018-07-01T07:56:55.459Z,0.30
2018-07-01T07:59:59.964Z,0.10
2018-07-01T08:03:04.677Z,0.20
2018-07-01T08:06:09.146Z,0.20
2018-07-01T08:09:13.789Z,0.30
2018-07-01T08:12:18.207Z,0.37
2018-07-01T08:15:22.594Z,0.30
2018-07-01T08:18:26.994Z,0.30
2018-07-01T08:21:31.971Z,0.20
2018-07-01T08:24:36.613Z,0.20
2018-07-01T08:27:40.977Z,0.43
2018-07-01T08:30:45.348Z,0.30
2018-07-01T08:33:49.708Z,0.40
2018-07-01T08:36:54.096Z,0.30
2018-07-01T08:39:58.560Z,0.30
2018-07-01T08:43:02.951Z,0.30
2018-07-01T08:46:07.345Z,0.20
2018-07-01T08:49:11.713Z,0.20
2018-07-01T08:52:16.608Z,0.40
2018-07-01T08:55:21.655Z,0.20
2018-07-01T08:58:28.340Z,0.20
2018-07-01T09:01:34.353Z,0.20
2018-07-01T09:04:39.190Z,0.20
2018-07-01T09:07:43.762Z,0.20
2018-07-01T09:10:48.721Z,0.20
2018-07-01T09:13:53.744Z,0.13
2018-07-01T09:16:59.734Z,0.30
2018-07-01T09:20:05.426Z,0.20
2018-07-01T09:23:11.486Z,0.20
2018-07-01T09:26:17.323Z,0.20
2018-07-01T09:29:23.099Z,0.20
2018-07-01T09:32:28.666Z,0.30
2018-07-01T09:35:33.167Z,0.57
2018-07-01T09:38:37.691Z,0.40
2018-07-01T09:41:42.210Z,0.20
2018-07-01T09:44:46.730Z,0.23
2018-07-01T09:47:51.249Z,0.20
2018-07-01T09:50:56.965Z,0.20
2018-07-01T09:54:01.965Z,0.30
2018-07-01T09:57:06.482Z,0.37
2018-07-01T10:00:11.001Z,0.30
2018-07-01T10:03:15.617Z,0.27
2018-07-01T10:06:19.767Z,0.27
2018-07-01T10:09:24.382Z,0.30
2018-07-01T10:12:28.798Z,0.30
2018-07-01T10:15:33.228Z,0.20
2018-07-01T10:18:38.254Z,0.40
2018-07-01T10:21:42.680Z,0.30
2018-07-01T10:24:47.105Z,0.40
2018-07-01T10:27:51.529Z,0.30
2018-07-01T10:30:55.938Z,0.20
2018-07-01T10:34:00.443Z,0.40
2018-07-01T10:37:04.917Z,0.43
2018-07-01T10:40:09.399Z,0.23
2018-07-01T10:43:13.824Z,0.30
2018-07-01T10:46:18.004Z,0.27
2018-07-01T10:49:22.434Z,0.30
2018-07-01T10:52:26.905Z,0.20
2018-07-01T10:55:31.338Z,0.40
2018-07-01T10:58:35.794Z,0.30
2018-07-01T11:01:40.225Z,0.20
2018-07-01T11:04:44.764Z,0.30
2018-07-01T11:07:49.224Z,0.40
2018-07-01T11:10:53.701Z,0.40
2018-07-01T11:13:58.169Z,0.30
2018-07-01T11:17:02.650Z,0.30
2018-07-01T11:20:07.277Z,0.50
2018-07-01T11:23:11.772Z,0.30
2018-07-01T11:26:16.341Z,0.50
2018-07-01T11:29:21.276Z,0.37
2018-07-01T11:32:26.193Z,0.27
2018-07-01T11:35:31.721Z,0.30
2018-07-01T11:38:37.919Z,0.20
2018-07-01T11:41:42.588Z,0.30
2018-07-01T11:44:46.981Z,0.30
2018-07-01T11:47:51.425Z,0.40
2018-07-01T11:50:55.965Z,0.30
2018-07-01T11:54:00.362Z,0.30
2018-07-01T11:57:04.949Z,0.50
2018-07-01T12:00:09.788Z,0.50
2018-07-01T12:03:14.193Z,0.40
2018-07-01T12:06:18.681Z,0.60
2018-07-01T12:09:23.141Z,0.37
2018-07-01T12:12:27.560Z,0.50
2018-07-01T12:15:31.995Z,0.30
2018-07-01T12:18:36.477Z,0.50
2018-07-01T12:21:40.934Z,0.60
2018-07-01T12:24:45.385Z,0.30
2018-07-01T12:27:49.858Z,0.20
2018-07-01T12:30:54.344Z,0.30
2018-07-01T12:33:58.463Z,0.40
2018-07-01T12:37:02.873Z,0.30
2018-07-01T12:40:07.426Z,0.53
2018-07-01T12:43:11.917Z,0.23
2018-07-01T12:46:16.386Z,0.30
2018-07-01T12:49:20.865Z,0.30
2018-07-01T12:52:26.530Z,0.30
2018-07-01T12:55:32.006Z,0.23
2018-07-01T12:58:36.473Z,0.23
2018-07-01T13:01:40.918Z,0.30
2018-07-01T13:04:46.684Z,0.20
2018-07-01T13:07:52.338Z,0.27
2018-07-01T13:10:59.073Z,0.20
2018-07-01T13:14:05.474Z,0.30
2018-07-01T13:17:10.385Z,0.20
2018-07-01T13:20:14.902Z,0.40
2018-07-01T13:23:21.530Z,0.40
2018-07-01T13:26:26.153Z,0.33
2018-07-01T13:29:30.632Z,0.20
2018-07-01T13:32:35.185Z,0.30
2018-07-01T13:35:39.722Z,0.20
2018-07-01T13:38:45.369Z,0.27
2018-07-01T13:41:51.509Z,0.17
2018-07-01T13:44:58.143Z,0.33
2018-07-01T13:48:04.390Z,0.30
2018-07-01T13:51:09.510Z,0.20
2018-07-01T13:54:14.385Z,0.10
2018-07-01T13:57:20.826Z,0.20
2018-07-01T14:00:29.056Z,0.20
2018-07-01T14:03:34.318Z,0.40
2018-07-01T14:06:39.750Z,0.40
2018-07-01T14:09:45.050Z,0.30
2018-07-01T14:12:49.677Z,0.30
2018-07-01T14:15:57.015Z,0.20
2018-07-01T14:19:02.689Z,0.43
2018-07-01T14:22:10.915Z,0.30
2018-07-01T14:25:21.597Z,0.40
2018-07-01T14:28:31.162Z,0.30
2018-07-01T14:31:49.106Z,0.37
2018-07-01T14:34:58.777Z,0.20
2018-07-01T14:38:04.594Z,0.20
2018-07-01T14:41:09.808Z,0.50
2018-07-01T14:44:16.133Z,0.30
2018-07-01T14:47:22.213Z,0.30
2018-07-01T14:50:27.880Z,0.30
2018-07-01T14:53:34.818Z,0.20
2018-07-01T14:56:40.325Z,0.23
2018-07-01T14:59:46.558Z,0.40
2018-07-01T15:02:52.766Z,0.20
2018-07-01T15:05:57.738Z,0.20
2018-07-01T15:09:03.289Z,0.30
2018-07-01T15:12:13.270Z,1.03
2018-07-01T15:15:18.290Z,3.20
2018-07-01T15:18:23.634Z,0.30
2018-07-01T15:21:28.926Z,1.33
2018-07-01T15:24:33.952Z,1.83
2018-07-01T15:27:38.530Z,0.20
2018-07-01T15:30:43.073Z,0.70
2018-07-01T15:33:47.544Z,0.10
2018-07-01T15:36:51.693Z,0.20
2018-07-01T15:39:56.177Z,0.60
2018-07-01T15:43:00.605Z,0.60
2018-07-01T15:46:05.862Z,0.20
2018-07-01T15:49:10.266Z,0.20
2018-07-01T15:52:14.763Z,0.20
2018-07-01T15:55:19.273Z,0.40
2018-07-01T15:58:23.690Z,0.33
2018-07-01T16:01:28.143Z,0.67
2018-07-01T16:04:32.574Z,0.40
2018-07-01T16:07:37.130Z,0.20
2018-07-01T16:10:41.561Z,0.30
2018-07-01T16:13:45.964Z,0.20
2018-07-01T16:16:50.500Z,0.60
2018-07-01T16:19:54.942Z,1.30
2018-07-01T16:22:59.344Z,0.30
2018-07-01T16:26:09.030Z,0.40
2018-07-01T16:29:13.417Z,0.40
2018-07-01T16:32:17.823Z,0.20
2018-07-01T16:35:22.300Z,0.30
2018-07-01T16:38:26.712Z,0.20
2018-07-01T16:41:31.075Z,0.30
2018-07-01T16:44:49.596Z,0.10
2018-07-01T16:48:00.111Z,0.20
2018-07-01T16:51:06.666Z,0.20
2018-07-01T16:54:18.132Z,0.30
2018-07-01T17:01:14.329Z,0.20
2018-07-01T17:04:19.213Z,0.50
2018-07-01T17:07:23.642Z,0.60
2018-07-01T17:10:28.075Z,0.60
2018-07-01T17:13:40.537Z,0.70
2018-07-01T17:16:56.554Z,0.30
2018-07-01T17:20:01.028Z,0.60
2018-07-01T17:23:05.449Z,0.30
2018-07-01T17:26:09.908Z,0.40
2018-07-01T17:29:14.377Z,0.70
2018-07-01T17:32:23.880Z,0.20
2018-07-01T17:35:28.882Z,0.20
2018-07-01T17:38:33.329Z,0.40
2018-07-01T17:41:38.076Z,0.40
2018-07-01T17:44:42.489Z,0.50
2018-07-01T17:47:46.892Z,0.30
2018-07-01T17:50:51.297Z,0.40
2018-07-01T17:53:57.427Z,0.40
2018-07-01T17:57:01.842Z,0.20
2018-07-01T18:00:07.564Z,0.30
2018-07-01T18:03:12.009Z,0.30
2018-07-01T18:06:16.616Z,0.30
2018-07-01T18:09:21.060Z,0.30
2018-07-01T18:12:25.592Z,0.40
2018-07-01T18:15:30.265Z,0.37
2018-07-01T18:18:34.850Z,0.33
2018-07-01T18:21:41.213Z,0.30
2018-07-01T18:25:01.540Z,0.50
2018-07-01T18:27:56.131Z,0.30
2018-07-01T18:30:52.480Z,0.20
2018-07-01T18:33:56.860Z,0.30
2018-07-01T18:37:01.390Z,0.40
2018-07-01T18:40:06.085Z,0.30
2018-07-01T18:43:10.424Z,0.30
2018-07-01T18:46:14.945Z,0.37
2018-07-01T18:49:19.296Z,0.30
2018-07-01T18:52:23.673Z,0.30
2018-07-01T18:55:28.093Z,0.40
2018-07-01T18:58:32.457Z,0.40
2018-07-01T19:01:36.925Z,0.23
2018-07-01T19:04:41.268Z,0.30
2018-07-01T19:07:45.640Z,0.23
2018-07-01T19:10:50.016Z,0.20
2018-07-01T19:13:54.480Z,0.30
2018-07-01T19:16:59.044Z,0.20
2018-07-01T19:20:03.445Z,0.40
2018-07-01T19:23:07.821Z,0.40
2018-07-01T19:26:12.225Z,0.47
2018-07-01T19:29:16.583Z,0.40
2018-07-01T19:32:21.260Z,0.30
2018-07-01T19:35:25.612Z,0.40
2018-07-01T19:38:30.405Z,0.30
2018-07-01T19:41:34.808Z,0.20
2018-07-01T19:44:39.175Z,0.40
2018-07-01T19:47:43.562Z,0.20
2018-07-01T19:50:47.974Z,0.20
2018-07-01T19:53:52.350Z,0.20
2018-07-01T19:56:56.977Z,0.20
2018-07-01T20:00:01.558Z,0.23
2018-07-01T20:03:05.953Z,0.20
2018-07-01T20:06:10.406Z,0.20
2018-07-01T20:09:15.073Z,0.40
2018-07-01T20:12:19.516Z,0.30
2018-07-01T20:15:23.852Z,0.63
2018-07-01T20:18:28.779Z,0.40
2018-07-01T20:21:33.347Z,0.30
2018-07-01T20:24:37.763Z,0.40
2018-07-01T20:27:42.125Z,0.40
2018-07-01T20:30:46.517Z,0.60
2018-07-01T20:33:50.873Z,0.40
2018-07-01T20:36:55.511Z,0.43
2018-07-01T20:40:00.140Z,0.50
2018-07-01T20:43:04.551Z,0.50
2018-07-01T20:46:09.377Z,0.70
2018-07-01T20:49:13.767Z,0.67
2018-07-01T20:52:18.178Z,0.70
2018-07-01T20:55:22.573Z,0.77
2018-07-01T20:58:26.958Z,0.60
2018-07-01T21:01:31.330Z,0.90
2018-07-01T21:04:35.739Z,0.53
2018-07-01T21:07:40.096Z,0.50
2018-07-01T21:10:44.465Z,0.73
2018-07-01T21:13:48.864Z,0.60
2018-07-01T21:16:53.270Z,0.60
2018-07-01T21:19:57.626Z,0.47
2018-07-01T21:23:02.040Z,0.40
2018-07-01T21:26:07.189Z,0.40
2018-07-01T21:29:11.889Z,0.50
2018-07-01T21:32:16.259Z,0.50
2018-07-01T21:35:20.629Z,0.40
2018-07-01T21:38:25.074Z,0.37
2018-07-01T21:41:29.408Z,0.30
2018-07-01T21:44:33.846Z,0.67
2018-07-01T21:47:38.443Z,0.50
2018-07-01T21:50:42.841Z,0.47
2018-07-01T21:53:47.222Z,0.60
2018-07-01T21:56:52.350Z,0.40
2018-07-01T21:59:56.741Z,0.33
2018-07-01T22:03:02.697Z,0.83
2018-07-01T22:06:07.924Z,0.47
2018-07-01T22:09:12.269Z,0.67
2018-07-01T22:12:33.611Z,0.70
2018-07-01T22:15:54.850Z,0.50
2018-07-01T22:18:59.345Z,0.67
2018-07-01T22:22:03.900Z,0.70
2018-07-01T22:25:08.264Z,0.70
2018-07-01T22:28:12.657Z,0.60
2018-07-01T22:31:17.029Z,0.60
2018-07-01T22:34:21.835Z,0.83
2018-07-01T22:37:26.240Z,0.70
2018-07-01T22:40:30.612Z,0.90
2018-07-01T22:43:35.017Z,0.80
2018-07-01T22:46:39.537Z,0.70
2018-07-01T22:49:43.939Z,0.80
2018-07-01T22:52:48.326Z,0.70
2018-07-01T22:55:52.728Z,0.67
2018-07-01T22:58:57.113Z,0.60
2018-07-01T23:03:16.400Z,1.00
2018-07-01T23:06:20.784Z,0.70
2018-07-01T23:09:25.154Z,0.80
2018-07-01T23:12:29.532Z,0.80
2018-07-01T23:15:33.918Z,0.70
2018-07-01T23:18:38.308Z,0.70
2018-07-01T23:21:42.724Z,0.60
2018-07-01T23:24:47.117Z,0.73
2018-07-01T23:27:51.537Z,0.70
2018-07-01T23:30:55.900Z,0.80
2018-07-01T23:34:00.303Z,0.67
2018-07-01T23:37:04.768Z,0.80
2018-07-01T23:40:09.977Z,0.60
2018-07-01T23:43:14.367Z,0.83
2018-07-01T23:46:18.762Z,0.50
2018-07-01T23:49:23.168Z,0.70
2018-07-01T23:52:27.560Z,0.73
2018-07-01T23:55:31.945Z,0.87
2018-07-01T23:58:36.329Z,0.70
